Time;durP1;ratioP1;P1;durP2;ratioP2;P2;SDS_P1;SDS_P2;PMS_P1;PMS_P2;Temp;Humidity;BMP_temperature;BMP_pressure;BME280_temperature;BME280_humidity;BME280_pressure;Samples;Min_cycle;Max_cycle;Signal;HPM_P1;HPM_P2
2021/01/30 00:01:26;;;;;;;17.33;9.13;;;;;;;;;;4390389;32;20104;-61
2021/01/30 00:03:52;;;;;;;;;;;;;;;;;;4382243;32;20100;-59
2021/01/30 00:06:18;;;;;;;17.23;9.60;;;;;;;;;;4385543;32;19992;-60
2021/01/30 00:08:43;;;;;;;16.83;9.43;;;;;;;;;;4386328;32;20500;-60
2021/01/30 00:11:12;;;;;;;15.77;9.52;;;;;;;;;;4365653;32;20532;-61
2021/01/30 00:13:38;;;;;;;20.33;10.50;;;;;;;;;;4378365;32;20077;-59
2021/01/30 00:16:05;;;;;;;14.55;8.02;;;;;;;;;;4391003;32;20066;-59
2021/01/30 00:18:31;;;;;;;15.98;8.48;;;;;;;;;;4371589;32;20070;-61
2021/01/30 00:20:56;;;;;;;;;;;;;;;;;;4374010;32;20078;-59
2021/01/30 00:23:22;;;;;;;17.33;9.15;;;;;;;;;;4391314;32;19992;-59
2021/01/30 00:25:48;;;;;;;16.27;8.95;;;;;;;;;;4383537;32;20150;-59
2021/01/30 00:28:13;;;;;;;15.05;9.02;;;;;;;;;;4383868;32;20089;-60
2021/01/30 00:30:39;;;;;;;13.55;7.25;;;;;;;;;;4382743;32;20129;-60
2021/01/30 00:33:05;;;;;;;;;;;;;;;;;;4378225;32;20104;-60
2021/01/30 00:35:32;;;;;;;13.18;8.38;;;;;;;;;;4382528;32;19977;-60
2021/01/30 00:37:58;;;;;;;14.82;8.43;;;;;;;;;;4375347;32;20088;-59
2021/01/30 00:40:23;;;;;;;;;;;;;;;;;;4386741;32;20066;-59
2021/01/30 00:42:49;;;;;;;16.05;9.07;;;;;;;;;;4390460;32;19997;-60
2021/01/30 00:45:16;;;;;;;;;;;;;;;;;;4382239;32;20097;-59
2021/01/30 00:47:42;;;;;;;14.75;8.85;;;;;;;;;;4387978;32;20356;-59
2021/01/30 00:50:07;;;;;;;;;;;;;;;;;;4376867;32;20101;-59
2021/01/30 00:52:34;;;;;;;14.40;9.07;;;;;;;;;;4379721;32;19974;-59
2021/01/30 00:54:59;;;;;;;13.62;8.52;;;;;;;;;;4367096;32;20093;-60
2021/01/30 00:57:25;;;;;;;;;;;;;;;;;;4381475;32;20508;-60
2021/01/30 00:59:50;;;;;;;13.05;8.18;;;;;;;;;;4399778;32;19977;-60
2021/01/30 01:02:16;;;;;;;;;;;;;;;;;;4386447;32;20066;-63
2021/01/30 01:04:43;;;;;;;14.32;8.50;;;;;;;;;;4391671;32;20416;-60
2021/01/30 01:07:09;;;;;;;14.65;8.55;;;;;;;;;;4375785;32;20171;-60
2021/01/30 01:09:34;;;;;;;;;;;;;;;;;;4377005;32;20098;-60
2021/01/30 01:12:00;;;;;;;12.43;7.15;;;;;;;;;;4377320;32;20007;-59
2021/01/30 01:14:26;;;;;;;;;;;;;;;;;;4376587;32;20503;-59
2021/01/30 01:16:52;;;;;;;12.68;8.27;;;;;;;;;;4375930;32;20040;-59
2021/01/30 01:19:17;;;;;;;;;;;;;;;;;;4361088;32;20097;-60
2021/01/30 01:21:43;;;;;;;13.23;8.23;;;;;;;;;;4404054;32;19975;-59
2021/01/30 01:24:08;;;;;;;;;;;;;;;;;;4391200;32;20146;-60
2021/01/30 01:26:34;;;;;;;12.15;7.95;;;;;;;;;;4403647;32;20428;-59
2021/01/30 01:29:00;;;;;;;11.38;7.57;;;;;;;;;;4391185;32;20285;-60
2021/01/30 01:31:26;;;;;;;14.07;8.63;;;;;;;;;;4391575;32;20220;-59
2021/01/30 01:33:51;;;;;;;;;;;;;;;;;;4377959;32;20109;-60
2021/01/30 01:36:18;;;;;;;13.27;7.87;;;;;;;;;;4364190;32;19980;-60
2021/01/30 01:38:44;;;;;;;12.57;6.93;;;;;;;;;;4363628;32;20090;-60
2021/01/30 01:41:10;;;;;;;;;;;;;;;;;;4365624;32;20462;-61
2021/01/30 01:43:36;;;;;;;13.68;8.02;;;;;;;;;;4377237;32;20343;-60
2021/01/30 01:46:07;;;;;;;14.50;8.10;;;;;;;;;;4375301;32;20062;-60
2021/01/30 01:48:35;;;;;;;13.43;9.57;;;;;;;;;;4378181;32;20499;-59
2021/01/30 01:51:02;;;;;;;13.60;8.68;;;;;;;;;;4376533;32;20496;-59
2021/01/30 01:53:37;;;;;;;12.98;7.97;;;;;;;;;;4391113;32;20158;-60
2021/01/30 01:56:05;;;;;;;12.55;7.62;;;;;;;;;;4378889;32;20070;-60
2021/01/30 01:58:32;;;;;;;12.27;7.55;;;;;;;;;;4408592;32;20061;-59
2021/01/30 02:00:58;;;;;;;13.60;8.25;;;;;;;;;;4386802;32;20082;-60
2021/01/30 02:03:23;;;;;;;;;;;;;;;;;;4365298;32;20631;-60
2021/01/30 02:05:49;;;;;;;13.88;8.70;;;;;;;;;;4376895;32;19974;-59
2021/01/30 02:08:18;;;;;;;11.90;7.45;;;;;;;;;;4363054;32;20508;-59
2021/01/30 02:10:45;;;;;;;13.43;7.85;;;;;;;;;;4375702;32;20066;-59
2021/01/30 02:13:16;;;;;;;12.50;7.85;;;;;;;;;;4375102;32;20472;-59
2021/01/30 02:15:46;;;;;;;11.25;6.80;;;;;;;;;;4375463;32;20098;-59
2021/01/30 02:18:27;;;;;;;12.75;7.53;;;;;;;;;;4356800;32;20069;-59
2021/01/30 02:21:05;;;;;;;11.90;6.55;;;;;;;;;;4375521;32;20135;-60
2021/01/30 02:23:55;;;;;;;10.48;6.28;;;;;;;;;;4375460;32;20074;-59
2021/01/30 02:26:55;;;;;;;11.82;7.55;;;;;;;;;;4363326;32;20069;-59
2021/01/30 02:29:33;;;;;;;9.07;6.03;;;;;;;;;;4350612;32;20522;-60
2021/01/30 02:32:17;;;;;;;10.93;6.40;;;;;;;;;;4363634;32;20062;-59
2021/01/30 02:34:43;;;;;;;11.60;7.00;;;;;;;;;;4391383;32;20069;-59
2021/01/30 02:37:11;;;;;;;;;;;;;;;;;;4391789;32;20350;-59
2021/01/30 02:39:40;;;;;;;12.25;6.55;;;;;;;;;;4402680;32;19980;-59
2021/01/30 02:42:28;;;;;;;9.27;5.90;;;;;;;;;;4390057;32;20073;-60
2021/01/30 02:45:03;;;;;;;10.65;6.03;;;;;;;;;;4375538;32;20155;-60
2021/01/30 02:47:30;;;;;;;9.07;5.85;;;;;;;;;;4353470;32;20526;-59
2021/01/30 02:50:03;;;;;;;9.52;5.75;;;;;;;;;;4404204;32;20065;-59
2021/01/30 02:52:29;;;;;;;9.40;5.47;;;;;;;;;;4390852;32;20451;-60
2021/01/30 02:54:58;;;;;;;;;;;;;;;;;;4369586;32;20062;-59
2021/01/30 02:57:24;;;;;;;8.38;5.20;;;;;;;;;;4374663;32;20089;-59
2021/01/30 02:59:53;;;;;;;8.07;5.50;;;;;;;;;;4374470;32;20069;-59
2021/01/30 03:02:20;;;;;;;8.93;5.65;;;;;;;;;;4391133;32;20078;-60
2021/01/30 03:04:46;;;;;;;8.23;5.43;;;;;;;;;;4379340;32;20202;-59
2021/01/30 03:07:18;;;;;;;;;;;;;;;;;;4367872;32;20143;-60
2021/01/30 03:10:13;;;;;;;9.25;4.93;;;;;;;;;;4379158;32;19966;-59
2021/01/30 03:13:11;;;;;;;8.57;5.62;;;;;;;;;;4375617;32;20605;-59
2021/01/30 03:15:58;;;;;;;8.82;5.43;;;;;;;;;;4374521;32;20073;-59
2021/01/30 03:18:28;;;;;;;7.68;4.87;;;;;;;;;;4376897;32;20070;-59
2021/01/30 03:20:54;;;;;;;7.82;5.10;;;;;;;;;;4376365;32;20070;-58
2021/01/30 03:23:20;;;;;;;;;;;;;;;;;;4374599;32;20081;-59
2021/01/30 03:25:46;;;;;;;8.10;5.43;;;;;;;;;;4388118;32;19969;-59
2021/01/30 03:28:12;;;;;;;9.85;5.82;;;;;;;;;;4378428;32;20062;-64
2021/01/30 03:30:37;;;;;;;;;;;;;;;;;;4368471;32;20162;-60
2021/01/30 03:33:03;;;;;;;9.13;5.68;;;;;;;;;;4380024;32;19976;-59
2021/01/30 03:35:29;;;;;;;8.65;5.87;;;;;;;;;;4380651;32;20068;-59
2021/01/30 03:37:54;;;;;;;;;;;;;;;;;;4355556;32;20079;-60
2021/01/30 03:40:21;;;;;;;8.27;5.53;;;;;;;;;;4365146;32;20384;-59
2021/01/30 03:42:46;;;;;;;9.90;6.20;;;;;;;;;;4368967;32;20416;-59
2021/01/30 03:45:13;;;;;;;;;;;;;;;;;;4379111;32;20078;-59
2021/01/30 03:47:38;;;;;;;8.27;5.40;;;;;;;;;;4386010;32;20008;-60
2021/01/30 03:50:05;;;;;;;;;;;;;;;;;;4381541;32;20455;-60
2021/01/30 03:52:30;;;;;;;8.20;5.12;;;;;;;;;;4405907;32;20049;-59
2021/01/30 03:54:56;;;;;;;;;;;;;;;;;;4397076;32;20078;-61
2021/01/30 03:57:21;;;;;;;8.18;5.18;;;;;;;;;;4395440;32;19996;-59
2021/01/30 03:59:48;;;;;;;;;;;;;;;;;;4396437;32;20093;-59
2021/01/30 04:02:14;;;;;;;7.22;5.05;;;;;;;;;;4395340;32;19973;-59
2021/01/30 04:04:39;;;;;;;8.10;5.45;;;;;;;;;;4378180;32;20215;-59
2021/01/30 04:07:06;;;;;;;9.23;5.80;;;;;;;;;;4389882;32;20224;-59
2021/01/30 04:09:32;;;;;;;8.23;5.72;;;;;;;;;;4364628;32;20066;-60
2021/01/30 04:11:58;;;;;;;;;;;;;;;;;;4380212;32;20090;-59
2021/01/30 04:14:23;;;;;;;7.68;4.78;;;;;;;;;;4389795;32;19981;-59
2021/01/30 04:16:49;;;;;;;;;;;;;;;;;;4376961;32;20078;-59
2021/01/30 04:19:15;;;;;;;7.12;4.90;;;;;;;;;;4384508;32;20016;-60
2021/01/30 04:21:40;;;;;;;;;;;;;;;;;;4378818;32;20144;-60
2021/01/30 04:24:06;;;;;;;8.43;5.10;;;;;;;;;;4376434;32;19973;-58
2021/01/30 04:26:32;;;;;;;9.25;5.30;;;;;;;;;;4377056;32;20066;-60
2021/01/30 04:28:58;;;;;;;;;;;;;;;;;;4376890;32;20157;-61
2021/01/30 04:31:23;;;;;;;7.72;4.97;;;;;;;;;;4389135;32;19996;-59
2021/01/30 04:33:50;;;;;;;8.07;5.30;;;;;;;;;;4376394;32;20163;-59
2021/01/30 04:36:16;;;;;;;8.20;5.00;;;;;;;;;;4363881;32;20082;-59
2021/01/30 04:38:42;;;;;;;7.82;5.15;;;;;;;;;;4364058;32;20108;-59
2021/01/30 04:41:14;;;;;;;;;;;;;;;;;;4364131;32;20509;-60
2021/01/30 04:43:47;;;;;;;7.47;4.90;;;;;;;;;;4389580;32;20029;-60
2021/01/30 04:46:31;;;;;;;7.32;4.50;;;;;;;;;;4364065;32;20099;-60
2021/01/30 04:48:59;;;;;;;6.95;4.62;;;;;;;;;;4365646;32;20082;-59
2021/01/30 04:51:37;;;;;;;7.47;5.00;;;;;;;;;;4391607;32;20061;-59
2021/01/30 04:54:34;;;;;;;8.10;4.95;;;;;;;;;;4392176;32;20440;-59
2021/01/30 04:57:28;;;;;;;6.67;5.00;;;;;;;;;;4394025;32;20500;-61
2021/01/30 05:00:31;;;;;;;7.72;4.93;;;;;;;;;;4393743;32;20062;-60
2021/01/30 05:03:12;;;;;;;9.25;4.90;;;;;;;;;;4384257;32;20158;-60
2021/01/30 05:05:38;;;;;;;6.32;4.45;;;;;;;;;;4391080;32;20085;-59
2021/01/30 05:08:12;;;;;;;;;;;;;;;;;;4379045;32;20183;-60
2021/01/30 05:10:41;;;;;;;7.25;4.78;;;;;;;;;;4392018;32;19980;-60
2021/01/30 05:13:30;;;;;;;7.05;5.00;;;;;;;;;;4379118;32;20082;-60
2021/01/30 05:16:07;;;;;;;8.00;4.93;;;;;;;;;;4391730;32;20155;-59
2021/01/30 05:18:34;;;;;;;7.18;4.37;;;;;;;;;;4373939;32;20158;-59
2021/01/30 05:21:04;;;;;;;8.60;4.82;;;;;;;;;;4375863;32;20145;-59
2021/01/30 05:23:31;;;;;;;6.45;4.50;;;;;;;;;;4375590;32;20070;-59
2021/01/30 05:26:09;;;;;;;6.30;4.50;;;;;;;;;;4363366;32;20108;-59
2021/01/30 05:29:11;;;;;;;6.97;4.65;;;;;;;;;;4364127;32;20062;-60
2021/01/30 05:31:59;;;;;;;6.82;4.47;;;;;;;;;;4374342;32;20082;-59
2021/01/30 05:34:34;;;;;;;7.37;4.70;;;;;;;;;;4376156;32;20508;-60
2021/01/30 05:37:05;;;;;;;6.57;4.40;;;;;;;;;;4376676;32;20085;-59
2021/01/30 05:39:53;;;;;;;7.05;4.60;;;;;;;;;;4390557;32;20081;-60
2021/01/30 05:42:38;;;;;;;5.37;3.90;;;;;;;;;;4390104;32;20511;-60
2021/01/30 05:45:20;;;;;;;7.30;4.45;;;;;;;;;;4390646;32;20097;-62
2021/01/30 05:47:47;;;;;;;6.97;4.75;;;;;;;;;;4372517;32;20069;-60
2021/01/30 05:50:33;;;;;;;6.72;4.40;;;;;;;;;;4372640;32;20085;-60
2021/01/30 05:52:59;;;;;;;6.85;4.40;;;;;;;;;;4404519;32;20077;-62
2021/01/30 05:55:35;;;;;;;6.78;4.47;;;;;;;;;;4380521;32;20088;-60
2021/01/30 05:58:18;;;;;;;6.57;4.50;;;;;;;;;;4391385;32;20080;-60
2021/01/30 06:00:44;;;;;;;6.55;4.55;;;;;;;;;;4387442;32;20158;-61
2021/01/30 06:03:17;;;;;;;8.30;4.50;;;;;;;;;;4349841;32;20097;-61
2021/01/30 06:05:47;;;;;;;6.85;4.72;;;;;;;;;;4362901;32;20507;-60
2021/01/30 06:08:26;;;;;;;6.82;4.53;;;;;;;;;;4338447;32;20077;-59
2021/01/30 06:10:54;;;;;;;7.90;4.85;;;;;;;;;;4362851;32;20159;-60
2021/01/30 06:13:25;;;;;;;6.18;4.57;;;;;;;;;;4350264;32;20081;-60
2021/01/30 06:15:56;;;;;;;6.25;4.37;;;;;;;;;;4362992;32;20074;-59
2021/01/30 06:18:25;;;;;;;7.53;4.78;;;;;;;;;;4369732;32;20074;-61
2021/01/30 06:20:57;;;;;;;7.32;4.97;;;;;;;;;;4377128;32;20084;-60
2021/01/30 06:23:23;;;;;;;6.32;4.20;;;;;;;;;;4375430;32;20166;-61
2021/01/30 06:25:49;;;;;;;7.45;4.72;;;;;;;;;;4350157;32;20579;-62
2021/01/30 06:28:14;;;;;;;7.22;4.97;;;;;;;;;;4374647;32;20590;-61
2021/01/30 06:30:42;;;;;;;6.43;4.45;;;;;;;;;;4376382;32;20561;-62
2021/01/30 06:33:24;;;;;;;6.68;4.57;;;;;;;;;;4362820;32;20105;-62
2021/01/30 06:35:50;;;;;;;6.32;4.28;;;;;;;;;;4363052;32;20066;-62
2021/01/30 06:38:20;;;;;;;6.75;3.70;;;;;;;;;;4362422;32;20508;-61
2021/01/30 06:40:57;;;;;;;5.97;3.87;;;;;;;;;;4362507;32;20145;-60
2021/01/30 06:43:38;;;;;;;5.68;3.65;;;;;;;;;;4365104;32;20078;-60
2021/01/30 06:46:09;;;;;;;6.18;4.10;;;;;;;;;;4378117;32;20163;-62
2021/01/30 06:48:45;;;;;;;6.62;4.00;;;;;;;;;;4384149;32;20090;-61
2021/01/30 06:51:40;;;;;;;5.55;4.20;;;;;;;;;;4373640;32;20161;-61
2021/01/30 06:54:19;;;;;;;6.18;4.32;;;;;;;;;;4371396;32;20070;-63
2021/01/30 06:56:53;;;;;;;6.15;4.57;;;;;;;;;;4375165;32;20438;-63
2021/01/30 06:59:22;;;;;;;6.00;4.20;;;;;;;;;;4363140;32;20136;-62
2021/01/30 07:01:48;;;;;;;6.57;4.25;;;;;;;;;;4373136;32;20119;-62
2021/01/30 07:04:38;;;;;;;7.05;4.50;;;;;;;;;;4378078;32;20070;-62
2021/01/30 07:07:44;;;;;;;7.55;5.05;;;;;;;;;;4378930;32;20133;-62
2021/01/30 07:10:22;;;;;;;5.65;4.20;;;;;;;;;;4374180;32;20081;-61
2021/01/30 07:12:54;;;;;;;6.95;4.70;;;;;;;;;;4368139;32;20583;-62
2021/01/30 07:15:40;;;;;;;6.90;4.70;;;;;;;;;;4380551;32;20074;-62
2021/01/30 07:18:08;;;;;;;6.18;4.43;;;;;;;;;;4377921;32;20085;-61
2021/01/30 07:20:40;;;;;;;7.45;4.47;;;;;;;;;;4404908;32;20088;-61
2021/01/30 07:23:41;;;;;;;6.62;4.60;;;;;;;;;;4394569;32;20082;-62
2021/01/30 07:26:18;;;;;;;6.03;4.10;;;;;;;;;;4387014;32;20078;-62
2021/01/30 07:29:18;;;;;;;6.50;4.70;;;;;;;;;;4404450;32;20137;-61
2021/01/30 07:31:50;;;;;;;6.10;3.87;;;;;;;;;;4387494;32;20181;-61
2021/01/30 07:34:41;;;;;;;7.20;4.65;;;;;;;;;;4365246;32;20078;-61
2021/01/30 07:37:30;;;;;;;6.45;4.30;;;;;;;;;;4365034;32;20526;-60
2021/01/30 07:40:12;;;;;;;6.72;4.28;;;;;;;;;;4376851;32;20093;-62
2021/01/30 07:42:52;;;;;;;6.50;4.32;;;;;;;;;;4377992;32;20058;-61
2021/01/30 07:45:18;;;;;;;7.78;5.00;;;;;;;;;;4377251;32;20146;-61
2021/01/30 07:48:02;;;;;;;6.68;4.70;;;;;;;;;;4374165;32;20133;-62
2021/01/30 07:50:33;;;;;;;7.62;5.65;;;;;;;;;;4388104;32;20524;-61
2021/01/30 07:53:05;;;;;;;8.05;5.50;;;;;;;;;;4377275;32;20073;-63
2021/01/30 07:55:31;;;;;;;7.40;4.90;;;;;;;;;;4378513;32;20500;-63
2021/01/30 07:58:51;;;;;;;8.57;4.87;;;;;;;;;;4376900;32;20085;-61
2021/01/30 08:01:31;;;;;;;8.75;5.68;;;;;;;;;;4332618;33;20079;-60
2021/01/30 08:04:03;;;;;;;9.80;4.97;;;;;;;;;;4377943;32;20094;-62
2021/01/30 08:06:51;;;;;;;8.57;5.22;;;;;;;;;;4365365;32;20078;-62
2021/01/30 08:09:31;;;;;;;8.40;4.78;;;;;;;;;;4376758;32;20087;-61
2021/01/30 08:12:01;;;;;;;8.02;5.15;;;;;;;;;;4377825;32;20070;-62
2021/01/30 08:14:30;;;;;;;8.02;5.15;;;;;;;;;;4374971;32;20061;-62
2021/01/30 08:17:32;;;;;;;6.75;4.47;;;;;;;;;;4381533;32;20448;-61
2021/01/30 08:20:20;;;;;;;5.93;3.90;;;;;;;;;;4381143;32;20088;-61
2021/01/30 08:23:01;;;;;;;5.72;3.80;;;;;;;;;;4373753;32;20507;-60
2021/01/30 08:25:46;;;;;;;6.43;4.10;;;;;;;;;;4392515;32;20177;-61
2021/01/30 08:28:19;;;;;;;5.93;3.65;;;;;;;;;;4386039;32;20088;-60
2021/01/30 08:30:44;;;;;;;6.82;3.85;;;;;;;;;;4370003;32;20054;-60
2021/01/30 08:33:10;;;;;;;4.75;3.17;;;;;;;;;;4369476;32;20082;-61
2021/01/30 08:35:48;;;;;;;5.60;3.45;;;;;;;;;;4368991;32;20076;-62
2021/01/30 08:38:17;;;;;;;6.05;3.87;;;;;;;;;;4370641;32;20607;-60
2021/01/30 08:40:49;;;;;;;4.87;3.28;;;;;;;;;;4386209;32;20081;-60
2021/01/30 08:43:38;;;;;;;5.75;3.78;;;;;;;;;;4387143;32;20070;-60
2021/01/30 08:46:24;;;;;;;5.62;3.47;;;;;;;;;;4377122;32;20534;-62
2021/01/30 08:48:59;;;;;;;5.97;3.90;;;;;;;;;;4381848;32;20061;-60
2021/01/30 08:51:25;;;;;;;4.93;3.50;;;;;;;;;;4387225;32;20074;-60
2021/01/30 08:53:51;;;;;;;5.75;3.60;;;;;;;;;;4374483;32;20495;-61
2021/01/30 08:56:54;;;;;;;5.22;3.72;;;;;;;;;;4365482;32;20073;-62
2021/01/30 08:59:43;;;;;;;6.68;3.55;;;;;;;;;;4381498;32;20061;-62
2021/01/30 09:02:11;;;;;;;5.18;3.35;;;;;;;;;;4373476;32;20077;-61
2021/01/30 09:04:40;;;;;;;5.03;3.28;;;;;;;;;;4376528;32;20460;-60
2021/01/30 09:07:06;;;;;;;3.55;2.72;;;;;;;;;;4387660;32;20510;-61
2021/01/30 09:09:32;;;;;;;4.37;2.65;;;;;;;;;;4361845;32;20080;-60
2021/01/30 09:12:02;;;;;;;4.93;2.85;;;;;;;;;;4381447;32;20181;-61
2021/01/30 09:14:27;;;;;;;4.18;2.90;;;;;;;;;;4369831;32;20081;-61
2021/01/30 09:17:05;;;;;;;4.32;2.90;;;;;;;;;;4385979;32;20510;-60
2021/01/30 09:19:49;;;;;;;3.90;2.80;;;;;;;;;;4382239;32;20069;-61
2021/01/30 09:22:30;;;;;;;4.12;2.80;;;;;;;;;;4382324;32;20158;-59
2021/01/30 09:25:37;;;;;;;4.80;2.85;;;;;;;;;;4369476;32;20082;-59
2021/01/30 09:28:08;;;;;;;4.15;2.85;;;;;;;;;;4361380;32;20503;-59
2021/01/30 09:30:51;;;;;;;4.30;2.92;;;;;;;;;;4375832;32;20501;-61
2021/01/30 09:33:29;;;;;;;5.45;3.12;;;;;;;;;;4385077;32;20066;-61
2021/01/30 09:36:05;;;;;;;3.62;2.90;;;;;;;;;;4378467;32;20197;-59
2021/01/30 09:38:37;;;;;;;5.62;2.80;;;;;;;;;;4390711;32;20082;-61
2021/01/30 09:41:23;;;;;;;5.70;3.22;;;;;;;;;;4378453;32;20537;-60
2021/01/30 09:44:10;;;;;;;3.70;2.67;;;;;;;;;;4380056;32;20061;-60
2021/01/30 09:46:37;;;;;;;4.72;2.92;;;;;;;;;;4386424;32;20099;-62
2021/01/30 09:49:05;;;;;;;5.45;2.92;;;;;;;;;;4354246;32;20449;-59
2021/01/30 09:51:32;;;;;;;4.35;3.00;;;;;;;;;;4363317;32;20065;-62
2021/01/30 09:53:59;;;;;;;4.47;3.10;;;;;;;;;;4363864;32;20092;-60
2021/01/30 09:56:25;;;;;;;7.25;3.37;;;;;;;;;;4363135;32;20065;-60
2021/01/30 09:58:56;;;;;;;4.55;2.90;;;;;;;;;;4363503;32;20116;-60
2021/01/30 10:01:30;;;;;;;3.87;2.90;;;;;;;;;;4354687;32;20214;-61
2021/01/30 10:03:56;;;;;;;4.45;3.00;;;;;;;;;;4376872;32;20448;-62
2021/01/30 10:06:29;;;;;;;4.53;3.00;;;;;;;;;;4375400;32;20066;-61
2021/01/30 10:08:55;;;;;;;4.20;2.40;;;;;;;;;;4380558;32;20070;-61
2021/01/30 10:11:22;;;;;;;3.85;3.08;;;;;;;;;;4381610;32;20108;-63
2021/01/30 10:13:56;;;;;;;4.03;2.70;;;;;;;;;;4358957;32;20188;-61
2021/01/30 10:16:23;;;;;;;4.70;2.80;;;;;;;;;;4363217;32;20137;-61
2021/01/30 10:18:59;;;;;;;5.35;3.25;;;;;;;;;;4348839;32;20062;-61
2021/01/30 10:21:46;;;;;;;4.00;3.03;;;;;;;;;;4388573;32;20072;-61
2021/01/30 10:24:13;;;;;;;;;;;;;;;;;;4388154;32;20439;-61
2021/01/30 10:26:38;;;;;;;3.92;2.78;;;;;;;;;;4387998;32;20082;-63
2021/01/30 10:29:06;;;;;;;5.00;3.10;;;;;;;;;;4375178;32;20126;-60
2021/01/30 10:31:48;;;;;;;3.80;2.70;;;;;;;;;;4363152;32;20549;-61
2021/01/30 10:34:21;;;;;;;5.68;3.40;;;;;;;;;;4362866;32;20054;-60
2021/01/30 10:36:51;;;;;;;5.45;3.55;;;;;;;;;;4362604;32;20067;-60
2021/01/30 10:39:17;;;;;;;3.95;3.28;;;;;;;;;;4364117;32;20074;-60
2021/01/30 10:41:42;;;;;;;5.82;4.22;;;;;;;;;;4390196;32;20192;-61
2021/01/30 10:44:09;;;;;;;5.28;3.45;;;;;;;;;;4370130;32;20082;-61
2021/01/30 10:46:43;;;;;;;4.45;3.42;;;;;;;;;;4386967;32;20501;-62
2021/01/30 10:49:19;;;;;;;4.45;3.35;;;;;;;;;;4377833;32;20083;-63
2021/01/30 10:51:46;;;;;;;4.87;3.35;;;;;;;;;;4389884;32;20072;-60
2021/01/30 10:54:26;;;;;;;6.82;3.53;;;;;;;;;;4375435;32;20066;-65
2021/01/30 10:57:17;;;;;;;4.72;2.95;;;;;;;;;;4356410;32;20078;-60
2021/01/30 10:59:53;;;;;;;4.90;3.37;;;;;;;;;;4384361;32;20085;-60
2021/01/30 11:02:35;;;;;;;5.00;3.50;;;;;;;;;;4371599;32;20074;-60
2021/01/30 11:05:13;;;;;;;6.65;3.40;;;;;;;;;;4368989;32;20556;-59
2021/01/30 11:07:45;;;;;;;5.50;3.45;;;;;;;;;;4379412;32;20097;-61
2021/01/30 11:10:23;;;;;;;3.87;2.97;;;;;;;;;;4369422;32;20063;-59
2021/01/30 11:12:49;;;;;;;5.85;3.28;;;;;;;;;;4378965;32;20076;-60
